sensor_id;sensor_type;location;lat;lon;timestamp;P1;durP1;ratioP1;P2;durP2;ratioP2
12846;SDS011;6492;48.128;8.320;2024-03-22T00:03:53;10.93;;;7.40;;
12846;SDS011;6492;48.128;8.320;2024-03-22T00:07:54;13.60;;;8.67;;
12846;SDS011;6492;48.128;8.320;2024-03-22T00:11:56;10.87;;;7.60;;
12846;SDS011;6492;48.128;8.320;2024-03-22T00:15:59;13.20;;;8.77;;
12846;SDS011;6492;48.128;8.320;2024-03-22T00:20:01;9.33;;;6.80;;
12846;SDS011;6492;48.128;8.320;2024-03-22T00:24:03;11.87;;;8.30;;
12846;SDS011;6492;48.128;8.320;2024-03-22T00:28:05;13.90;;;9.43;;
12846;SDS011;6492;48.128;8.320;2024-03-22T00:32:08;15.53;;;8.97;;
12846;SDS011;6492;48.128;8.320;2024-03-22T00:36:10;15.10;;;9.90;;
12846;SDS011;6492;48.128;8.320;2024-03-22T00:40:12;14.03;;;9.50;;
12846;SDS011;6492;48.128;8.320;2024-03-22T00:44:14;10.97;;;7.33;;
12846;SDS011;6492;48.128;8.320;2024-03-22T00:48:17;10.80;;;8.30;;
12846;SDS011;6492;48.128;8.320;2024-03-22T00:52:21;12.67;;;9.17;;
12846;SDS011;6492;48.128;8.320;2024-03-22T00:56:25;14.23;;;9.40;;
12846;SDS011;6492;48.128;8.320;2024-03-22T01:00:26;14.27;;;10.00;;
12846;SDS011;6492;48.128;8.320;2024-03-22T01:04:29;11.97;;;8.53;;
12846;SDS011;6492;48.128;8.320;2024-03-22T01:08:30;9.43;;;6.93;;
12846;SDS011;6492;48.128;8.320;2024-03-22T01:12:32;12.50;;;8.67;;
12846;SDS011;6492;48.128;8.320;2024-03-22T01:16:34;15.23;;;10.07;;
12846;SDS011;6492;48.128;8.320;2024-03-22T01:20:37;12.50;;;8.77;;
12846;SDS011;6492;48.128;8.320;2024-03-22T01:24:39;12.97;;;9.70;;
12846;SDS011;6492;48.128;8.320;2024-03-22T01:28:39;21.63;;;11.43;;
12846;SDS011;6492;48.128;8.320;2024-03-22T01:32:41;18.80;;;11.83;;
12846;SDS011;6492;48.128;8.320;2024-03-22T01:36:44;14.57;;;10.37;;
12846;SDS011;6492;48.128;8.320;2024-03-22T01:40:46;13.93;;;9.80;;
12846;SDS011;6492;48.128;8.320;2024-03-22T01:44:48;16.30;;;10.57;;
12846;SDS011;6492;48.128;8.320;2024-03-22T01:48:50;19.10;;;12.30;;
12846;SDS011;6492;48.128;8.320;2024-03-22T01:52:55;19.03;;;11.93;;
12846;SDS011;6492;48.128;8.320;2024-03-22T01:56:57;20.10;;;12.10;;
12846;SDS011;6492;48.128;8.320;2024-03-22T02:00:59;20.07;;;12.23;;
12846;SDS011;6492;48.128;8.320;2024-03-22T02:05:11;15.93;;;11.67;;
12846;SDS011;6492;48.128;8.320;2024-03-22T02:09:14;16.53;;;11.60;;
12846;SDS011;6492;48.128;8.320;2024-03-22T02:13:16;18.73;;;12.53;;
12846;SDS011;6492;48.128;8.320;2024-03-22T02:17:18;18.67;;;13.03;;
12846;SDS011;6492;48.128;8.320;2024-03-22T02:21:20;19.00;;;12.03;;
12846;SDS011;6492;48.128;8.320;2024-03-22T02:25:23;16.63;;;12.00;;
12846;SDS011;6492;48.128;8.320;2024-03-22T02:29:24;18.37;;;11.97;;
12846;SDS011;6492;48.128;8.320;2024-03-22T02:33:25;17.17;;;12.07;;
12846;SDS011;6492;48.128;8.320;2024-03-22T02:37:27;18.97;;;12.90;;
12846;SDS011;6492;48.128;8.320;2024-03-22T02:41:30;20.03;;;12.17;;
12846;SDS011;6492;48.128;8.320;2024-03-22T02:45:32;15.47;;;10.83;;
12846;SDS011;6492;48.128;8.320;2024-03-22T02:49:34;14.70;;;10.13;;
12846;SDS011;6492;48.128;8.320;2024-03-22T02:53:36;20.60;;;12.07;;
12846;SDS011;6492;48.128;8.320;2024-03-22T02:57:39;18.73;;;12.67;;
12846;SDS011;6492;48.128;8.320;2024-03-22T03:01:40;18.03;;;11.57;;
12846;SDS011;6492;48.128;8.320;2024-03-22T03:05:42;19.33;;;11.67;;
12846;SDS011;6492;48.128;8.320;2024-03-22T03:09:44;17.60;;;11.60;;
12846;SDS011;6492;48.128;8.320;2024-03-22T03:13:47;17.57;;;12.03;;
12846;SDS011;6492;48.128;8.320;2024-03-22T03:17:49;16.20;;;10.63;;
12846;SDS011;6492;48.128;8.320;2024-03-22T03:21:51;19.50;;;13.00;;
12846;SDS011;6492;48.128;8.320;2024-03-22T03:26:00;18.47;;;12.37;;
12846;SDS011;6492;48.128;8.320;2024-03-22T03:30:04;12.97;;;10.20;;
12846;SDS011;6492;48.128;8.320;2024-03-22T03:34:07;21.80;;;12.50;;
12846;SDS011;6492;48.128;8.320;2024-03-22T03:38:09;18.27;;;11.50;;
12846;SDS011;6492;48.128;8.320;2024-03-22T03:42:10;15.30;;;10.70;;
12846;SDS011;6492;48.128;8.320;2024-03-22T03:46:14;17.33;;;11.07;;
12846;SDS011;6492;48.128;8.320;2024-03-22T03:50:15;16.13;;;10.63;;
12846;SDS011;6492;48.128;8.320;2024-03-22T03:54:17;14.57;;;10.73;;
12846;SDS011;6492;48.128;8.320;2024-03-22T03:58:19;17.97;;;10.53;;
12846;SDS011;6492;48.128;8.320;2024-03-22T04:02:22;17.43;;;10.90;;
12846;SDS011;6492;48.128;8.320;2024-03-22T04:06:24;14.30;;;9.97;;
12846;SDS011;6492;48.128;8.320;2024-03-22T04:10:26;10.40;;;7.90;;
12846;SDS011;6492;48.128;8.320;2024-03-22T04:14:27;8.33;;;6.97;;
12846;SDS011;6492;48.128;8.320;2024-03-22T04:18:30;11.17;;;8.27;;
12846;SDS011;6492;48.128;8.320;2024-03-22T04:22:32;14.60;;;9.77;;
12846;SDS011;6492;48.128;8.320;2024-03-22T04:26:34;13.87;;;8.47;;
12846;SDS011;6492;48.128;8.320;2024-03-22T04:30:36;11.93;;;8.87;;
12846;SDS011;6492;48.128;8.320;2024-03-22T04:34:42;11.50;;;7.33;;
12846;SDS011;6492;48.128;8.320;2024-03-22T04:38:44;9.67;;;7.83;;
12846;SDS011;6492;48.128;8.320;2024-03-22T04:42:45;15.17;;;10.87;;
12846;SDS011;6492;48.128;8.320;2024-03-22T04:46:47;13.70;;;9.70;;
12846;SDS011;6492;48.128;8.320;2024-03-22T04:50:51;15.37;;;10.10;;
12846;SDS011;6492;48.128;8.320;2024-03-22T04:54:53;11.83;;;8.13;;
12846;SDS011;6492;48.128;8.320;2024-03-22T04:58:55;8.57;;;7.03;;
12846;SDS011;6492;48.128;8.320;2024-03-22T05:02:57;9.67;;;6.67;;
12846;SDS011;6492;48.128;8.320;2024-03-22T05:07:00;8.07;;;5.87;;
12846;SDS011;6492;48.128;8.320;2024-03-22T05:11:03;9.50;;;6.60;;
12846;SDS011;6492;48.128;8.320;2024-03-22T05:15:07;9.53;;;5.97;;
12846;SDS011;6492;48.128;8.320;2024-03-22T05:19:09;10.63;;;5.97;;
12846;SDS011;6492;48.128;8.320;2024-03-22T05:23:12;15.23;;;10.03;;
12846;SDS011;6492;48.128;8.320;2024-03-22T05:27:16;10.10;;;8.13;;
12846;SDS011;6492;48.128;8.320;2024-03-22T05:31:18;9.33;;;6.70;;
12846;SDS011;6492;48.128;8.320;2024-03-22T05:35:20;11.40;;;7.63;;
12846;SDS011;6492;48.128;8.320;2024-03-22T05:39:23;9.27;;;7.30;;
12846;SDS011;6492;48.128;8.320;2024-03-22T05:43:25;9.50;;;7.37;;
12846;SDS011;6492;48.128;8.320;2024-03-22T05:47:26;10.60;;;7.17;;
12846;SDS011;6492;48.128;8.320;2024-03-22T05:51:31;7.73;;;5.50;;
12846;SDS011;6492;48.128;8.320;2024-03-22T05:55:33;10.07;;;5.77;;
12846;SDS011;6492;48.128;8.320;2024-03-22T05:59:35;9.30;;;6.47;;
12846;SDS011;6492;48.128;8.320;2024-03-22T06:03:38;7.57;;;5.80;;
12846;SDS011;6492;48.128;8.320;2024-03-22T06:07:39;9.67;;;6.80;;
12846;SDS011;6492;48.128;8.320;2024-03-22T06:11:45;10.90;;;7.33;;
12846;SDS011;6492;48.128;8.320;2024-03-22T06:15:48;8.60;;;7.13;;
12846;SDS011;6492;48.128;8.320;2024-03-22T06:19:50;10.33;;;7.07;;
12846;SDS011;6492;48.128;8.320;2024-03-22T06:23:51;11.40;;;7.23;;
12846;SDS011;6492;48.128;8.320;2024-03-22T06:27:55;9.00;;;6.37;;
12846;SDS011;6492;48.128;8.320;2024-03-22T06:31:56;9.87;;;6.57;;
12846;SDS011;6492;48.128;8.320;2024-03-22T06:35:58;10.43;;;7.00;;
12846;SDS011;6492;48.128;8.320;2024-03-22T06:40:00;8.33;;;6.63;;
12846;SDS011;6492;48.128;8.320;2024-03-22T06:44:03;9.00;;;6.97;;
12846;SDS011;6492;48.128;8.320;2024-03-22T06:48:05;9.07;;;7.10;;
12846;SDS011;6492;48.128;8.320;2024-03-22T06:52:07;13.47;;;7.57;;
12846;SDS011;6492;48.128;8.320;2024-03-22T06:56:09;8.23;;;7.00;;
12846;SDS011;6492;48.128;8.320;2024-03-22T07:00:13;9.40;;;6.97;;
12846;SDS011;6492;48.128;8.320;2024-03-22T07:04:17;9.47;;;6.73;;
12846;SDS011;6492;48.128;8.320;2024-03-22T07:08:18;9.83;;;6.73;;
12846;SDS011;6492;48.128;8.320;2024-03-22T07:12:20;8.67;;;6.20;;
12846;SDS011;6492;48.128;8.320;2024-03-22T07:16:22;8.97;;;7.17;;
12846;SDS011;6492;48.128;8.320;2024-03-22T07:20:24;10.37;;;6.97;;
12846;SDS011;6492;48.128;8.320;2024-03-22T07:24:26;7.20;;;6.50;;
12846;SDS011;6492;48.128;8.320;2024-03-22T07:28:28;9.80;;;7.13;;
12846;SDS011;6492;48.128;8.320;2024-03-22T07:32:31;9.70;;;7.50;;
12846;SDS011;6492;48.128;8.320;2024-03-22T07:36:36;8.03;;;6.80;;
12846;SDS011;6492;48.128;8.320;2024-03-22T07:40:39;9.03;;;7.10;;
12846;SDS011;6492;48.128;8.320;2024-03-22T07:44:41;11.00;;;6.60;;
12846;SDS011;6492;48.128;8.320;2024-03-22T07:48:44;8.90;;;7.40;;
12846;SDS011;6492;48.128;8.320;2024-03-22T07:52:46;9.33;;;6.80;;
12846;SDS011;6492;48.128;8.320;2024-03-22T07:56:47;6.80;;;5.63;;
12846;SDS011;6492;48.128;8.320;2024-03-22T08:00:49;6.50;;;5.90;;
12846;SDS011;6492;48.128;8.320;2024-03-22T08:04:52;9.50;;;5.67;;
12846;SDS011;6492;48.128;8.320;2024-03-22T08:08:54;6.90;;;5.27;;
12846;SDS011;6492;48.128;8.320;2024-03-22T08:12:56;5.63;;;5.07;;
12846;SDS011;6492;48.128;8.320;2024-03-22T08:16:58;7.13;;;4.90;;
12846;SDS011;6492;48.128;8.320;2024-03-22T08:21:01;5.63;;;4.73;;
12846;SDS011;6492;48.128;8.320;2024-03-22T08:25:04;6.30;;;4.83;;
12846;SDS011;6492;48.128;8.320;2024-03-22T08:29:07;8.47;;;5.40;;
12846;SDS011;6492;48.128;8.320;2024-03-22T08:33:09;5.93;;;5.17;;
12846;SDS011;6492;48.128;8.320;2024-03-22T08:37:14;4.93;;;4.47;;
12846;SDS011;6492;48.128;8.320;2024-03-22T08:41:15;5.90;;;4.90;;
12846;SDS011;6492;48.128;8.320;2024-03-22T08:45:18;5.07;;;4.37;;
12846;SDS011;6492;48.128;8.320;2024-03-22T08:49:20;4.80;;;4.00;;
12846;SDS011;6492;48.128;8.320;2024-03-22T08:53:25;4.37;;;3.97;;
12846;SDS011;6492;48.128;8.320;2024-03-22T08:57:27;4.80;;;4.40;;
12846;SDS011;6492;48.128;8.320;2024-03-22T09:01:29;6.40;;;4.00;;
12846;SDS011;6492;48.128;8.320;2024-03-22T09:05:30;5.63;;;4.33;;
12846;SDS011;6492;48.128;8.320;2024-03-22T09:09:35;4.00;;;3.60;;
12846;SDS011;6492;48.128;8.320;2024-03-22T09:13:36;5.87;;;4.63;;
12846;SDS011;6492;48.128;8.320;2024-03-22T09:17:38;5.33;;;3.70;;
12846;SDS011;6492;48.128;8.320;2024-03-22T09:21:40;4.60;;;3.40;;
12846;SDS011;6492;48.128;8.320;2024-03-22T09:25:44;4.37;;;3.17;;
12846;SDS011;6492;48.128;8.320;2024-03-22T09:29:48;4.27;;;3.70;;
12846;SDS011;6492;48.128;8.320;2024-03-22T09:33:50;4.23;;;3.67;;
12846;SDS011;6492;48.128;8.320;2024-03-22T09:37:52;4.97;;;3.57;;
12846;SDS011;6492;48.128;8.320;2024-03-22T09:41:56;3.80;;;3.40;;
12846;SDS011;6492;48.128;8.320;2024-03-22T09:45:59;3.90;;;3.57;;
12846;SDS011;6492;48.128;8.320;2024-03-22T09:50:02;6.33;;;3.50;;
12846;SDS011;6492;48.128;8.320;2024-03-22T09:54:08;3.57;;;3.27;;
12846;SDS011;6492;48.128;8.320;2024-03-22T09:58:11;3.50;;;3.00;;
12846;SDS011;6492;48.128;8.320;2024-03-22T10:02:13;4.60;;;3.63;;
12846;SDS011;6492;48.128;8.320;2024-03-22T10:06:15;3.53;;;3.00;;
12846;SDS011;6492;48.128;8.320;2024-03-22T10:10:17;3.70;;;3.10;;
12846;SDS011;6492;48.128;8.320;2024-03-22T10:14:21;4.28;;;3.13;;
12846;SDS011;6492;48.128;8.320;2024-03-22T10:18:21;5.43;;;3.30;;
12846;SDS011;6492;48.128;8.320;2024-03-22T10:22:24;3.63;;;3.30;;
12846;SDS011;6492;48.128;8.320;2024-03-22T10:26:28;3.33;;;3.00;;
12846;SDS011;6492;48.128;8.320;2024-03-22T10:30:31;2.97;;;2.70;;
12846;SDS011;6492;48.128;8.320;2024-03-22T10:34:37;4.35;;;3.03;;
12846;SDS011;6492;48.128;8.320;2024-03-22T10:38:41;5.13;;;3.20;;
12846;SDS011;6492;48.128;8.320;2024-03-22T10:42:45;2.90;;;2.60;;
12846;SDS011;6492;48.128;8.320;2024-03-22T10:46:48;3.63;;;2.63;;
12846;SDS011;6492;48.128;8.320;2024-03-22T10:50:54;2.35;;;2.15;;
12846;SDS011;6492;48.128;8.320;2024-03-22T10:55:00;3.63;;;2.00;;
12846;SDS011;6492;48.128;8.320;2024-03-22T10:59:04;2.25;;;2.05;;
12846;SDS011;6492;48.128;8.320;2024-03-22T11:03:07;3.35;;;2.08;;
12846;SDS011;6492;48.128;8.320;2024-03-22T11:07:09;3.60;;;1.70;;
12846;SDS011;6492;48.128;8.320;2024-03-22T11:11:21;1.95;;;1.75;;
12846;SDS011;6492;48.128;8.320;2024-03-22T11:15:40;3.10;;;1.80;;
12846;SDS011;6492;48.128;8.320;2024-03-22T11:19:41;3.15;;;1.63;;
12846;SDS011;6492;48.128;8.320;2024-03-22T11:23:44;2.70;;;1.70;;
12846;SDS011;6492;48.128;8.320;2024-03-22T11:27:47;2.60;;;1.60;;
12846;SDS011;6492;48.128;8.320;2024-03-22T11:31:50;1.95;;;1.60;;
12846;SDS011;6492;48.128;8.320;2024-03-22T11:35:52;1.75;;;1.65;;
12846;SDS011;6492;48.128;8.320;2024-03-22T11:39:53;1.60;;;1.50;;
12846;SDS011;6492;48.128;8.320;2024-03-22T11:43:55;1.30;;;1.20;;
12846;SDS011;6492;48.128;8.320;2024-03-22T11:48:02;1.50;;;1.10;;
12846;SDS011;6492;48.128;8.320;2024-03-22T11:52:07;1.20;;;1.10;;
12846;SDS011;6492;48.128;8.320;2024-03-22T11:56:11;1.80;;;1.13;;
12846;SDS011;6492;48.128;8.320;2024-03-22T12:00:15;1.25;;;1.15;;
12846;SDS011;6492;48.128;8.320;2024-03-22T12:04:19;1.20;;;1.10;;
12846;SDS011;6492;48.128;8.320;2024-03-22T12:08:21;0.80;;;0.80;;
12846;SDS011;6492;48.128;8.320;2024-03-22T12:12:23;1.00;;;0.90;;
12846;SDS011;6492;48.128;8.320;2024-03-22T12:16:25;2.88;;;1.40;;
12846;SDS011;6492;48.128;8.320;2024-03-22T12:20:28;1.13;;;1.10;;
12846;SDS011;6492;48.128;8.320;2024-03-22T12:24:31;1.30;;;1.20;;
12846;SDS011;6492;48.128;8.320;2024-03-22T12:28:33;1.20;;;1.10;;
12846;SDS011;6492;48.128;8.320;2024-03-22T12:32:35;1.40;;;1.27;;
12846;SDS011;6492;48.128;8.320;2024-03-22T12:36:39;1.40;;;1.30;;
12846;SDS011;6492;48.128;8.320;2024-03-22T12:40:41;1.40;;;1.30;;
12846;SDS011;6492;48.128;8.320;2024-03-22T12:44:42;1.40;;;1.08;;
12846;SDS011;6492;48.128;8.320;2024-03-22T12:48:44;2.05;;;1.42;;
12846;SDS011;6492;48.128;8.320;2024-03-22T12:52:47;1.55;;;1.13;;
12846;SDS011;6492;48.128;8.320;2024-03-22T12:56:49;1.88;;;1.30;;
12846;SDS011;6492;48.128;8.320;2024-03-22T13:00:51;1.95;;;1.17;;
12846;SDS011;6492;48.128;8.320;2024-03-22T13:04:53;1.20;;;1.20;;
12846;SDS011;6492;48.128;8.320;2024-03-22T13:08:56;1.45;;;1.30;;
12846;SDS011;6492;48.128;8.320;2024-03-22T13:12:58;2.13;;;1.48;;
12846;SDS011;6492;48.128;8.320;2024-03-22T13:16:59;1.30;;;1.20;;
12846;SDS011;6492;48.128;8.320;2024-03-22T13:21:01;3.05;;;1.70;;
12846;SDS011;6492;48.128;8.320;2024-03-22T13:25:06;1.35;;;1.20;;
12846;SDS011;6492;48.128;8.320;2024-03-22T13:29:11;1.25;;;1.15;;
12846;SDS011;6492;48.128;8.320;2024-03-22T13:33:13;0.88;;;0.82;;
12846;SDS011;6492;48.128;8.320;2024-03-22T13:37:15;1.17;;;1.02;;
12846;SDS011;6492;48.128;8.320;2024-03-22T13:41:17;1.55;;;0.95;;
12846;SDS011;6492;48.128;8.320;2024-03-22T13:45:19;0.65;;;0.65;;
12846;SDS011;6492;48.128;8.320;2024-03-22T13:49:21;1.52;;;0.98;;
12846;SDS011;6492;48.128;8.320;2024-03-22T13:53:24;1.38;;;0.80;;
12846;SDS011;6492;48.128;8.320;2024-03-22T13:57:27;1.35;;;0.82;;
12846;SDS011;6492;48.128;8.320;2024-03-22T14:01:29;1.83;;;1.08;;
12846;SDS011;6492;48.128;8.320;2024-03-22T14:05:31;2.15;;;1.20;;
12846;SDS011;6492;48.128;8.320;2024-03-22T14:09:32;2.00;;;1.02;;
12846;SDS011;6492;48.128;8.320;2024-03-22T14:13:36;1.58;;;1.10;;
12846;SDS011;6492;48.128;8.320;2024-03-22T14:17:39;1.20;;;1.10;;
12846;SDS011;6492;48.128;8.320;2024-03-22T14:21:42;1.45;;;1.00;;
12846;SDS011;6492;48.128;8.320;2024-03-22T14:25:44;1.05;;;0.80;;
12846;SDS011;6492;48.128;8.320;2024-03-22T14:29:49;1.15;;;1.05;;
12846;SDS011;6492;48.128;8.320;2024-03-22T14:33:52;0.70;;;0.60;;
12846;SDS011;6492;48.128;8.320;2024-03-22T14:37:54;2.33;;;1.13;;
12846;SDS011;6492;48.128;8.320;2024-03-22T14:41:55;1.10;;;0.90;;
12846;SDS011;6492;48.128;8.320;2024-03-22T14:45:58;2.25;;;1.20;;
12846;SDS011;6492;48.128;8.320;2024-03-22T14:50:00;1.08;;;1.00;;
12846;SDS011;6492;48.128;8.320;2024-03-22T14:54:02;1.00;;;0.98;;
12846;SDS011;6492;48.128;8.320;2024-03-22T14:58:05;1.70;;;1.23;;
12846;SDS011;6492;48.128;8.320;2024-03-22T15:02:10;1.13;;;1.05;;
12846;SDS011;6492;48.128;8.320;2024-03-22T15:06:12;2.30;;;1.30;;
12846;SDS011;6492;48.128;8.320;2024-03-22T15:10:14;1.27;;;1.17;;
12846;SDS011;6492;48.128;8.320;2024-03-22T15:14:16;0.80;;;0.80;;
12846;SDS011;6492;48.128;8.320;2024-03-22T15:18:20;1.08;;;1.00;;
12846;SDS011;6492;48.128;8.320;2024-03-22T15:22:22;2.00;;;1.40;;
12846;SDS011;6492;48.128;8.320;2024-03-22T15:26:24;1.30;;;1.20;;
12846;SDS011;6492;48.128;8.320;2024-03-22T15:30:27;2.20;;;1.42;;
12846;SDS011;6492;48.128;8.320;2024-03-22T15:34:30;1.52;;;1.05;;
12846;SDS011;6492;48.128;8.320;2024-03-22T15:38:33;2.67;;;1.45;;
12846;SDS011;6492;48.128;8.320;2024-03-22T15:42:35;1.92;;;1.40;;
12846;SDS011;6492;48.128;8.320;2024-03-22T15:46:38;1.95;;;1.45;;
12846;SDS011;6492;48.128;8.320;2024-03-22T15:50:41;2.35;;;1.50;;
12846;SDS011;6492;48.128;8.320;2024-03-22T15:54:43;2.00;;;1.38;;
12846;SDS011;6492;48.128;8.320;2024-03-22T15:58:46;2.78;;;1.50;;
12846;SDS011;6492;48.128;8.320;2024-03-22T16:02:48;2.17;;;1.45;;
12846;SDS011;6492;48.128;8.320;2024-03-22T16:06:57;1.55;;;1.45;;
12846;SDS011;6492;48.128;8.320;2024-03-22T16:11:02;2.35;;;1.58;;
12846;SDS011;6492;48.128;8.320;2024-03-22T16:15:05;2.42;;;1.50;;
12846;SDS011;6492;48.128;8.320;2024-03-22T16:19:09;1.60;;;1.50;;
12846;SDS011;6492;48.128;8.320;2024-03-22T16:23:13;1.77;;;1.65;;
12846;SDS011;6492;48.128;8.320;2024-03-22T16:27:15;2.13;;;1.60;;
12846;SDS011;6492;48.128;8.320;2024-03-22T16:31:23;1.67;;;1.58;;
12846;SDS011;6492;48.128;8.320;2024-03-22T16:35:33;2.50;;;1.75;;
12846;SDS011;6492;48.128;8.320;2024-03-22T16:39:36;1.48;;;1.38;;
12846;SDS011;6492;48.128;8.320;2024-03-22T16:43:38;1.73;;;1.23;;
12846;SDS011;6492;48.128;8.320;2024-03-22T16:47:40;2.28;;;1.50;;
12846;SDS011;6492;48.128;8.320;2024-03-22T16:51:42;3.28;;;2.60;;
12846;SDS011;6492;48.128;8.320;2024-03-22T16:55:46;3.75;;;2.90;;
12846;SDS011;6492;48.128;8.320;2024-03-22T16:59:47;3.47;;;1.73;;
12846;SDS011;6492;48.128;8.320;2024-03-22T17:03:49;1.80;;;1.70;;
12846;SDS011;6492;48.128;8.320;2024-03-22T17:07:51;1.58;;;1.48;;
12846;SDS011;6492;48.128;8.320;2024-03-22T17:11:54;2.58;;;1.58;;
12846;SDS011;6492;48.128;8.320;2024-03-22T17:15:56;1.70;;;1.42;;
12846;SDS011;6492;48.128;8.320;2024-03-22T17:19:59;1.55;;;1.40;;
12846;SDS011;6492;48.128;8.320;2024-03-22T17:24:02;1.73;;;1.45;;
12846;SDS011;6492;48.128;8.320;2024-03-22T17:28:06;1.70;;;1.40;;
12846;SDS011;6492;48.128;8.320;2024-03-22T17:32:09;1.40;;;1.20;;
12846;SDS011;6492;48.128;8.320;2024-03-22T17:36:12;2.40;;;1.70;;
12846;SDS011;6492;48.128;8.320;2024-03-22T17:40:13;4.88;;;3.30;;
12846;SDS011;6492;48.128;8.320;2024-03-22T17:44:17;4.30;;;3.90;;
12846;SDS011;6492;48.128;8.320;2024-03-22T17:48:20;4.60;;;3.13;;
12846;SDS011;6492;48.128;8.320;2024-03-22T17:52:21;2.30;;;2.03;;
12846;SDS011;6492;48.128;8.320;2024-03-22T17:56:25;6.20;;;3.80;;
12846;SDS011;6492;48.128;8.320;2024-03-22T18:00:28;7.23;;;4.90;;
12846;SDS011;6492;48.128;8.320;2024-03-22T18:04:38;5.13;;;4.13;;
12846;SDS011;6492;48.128;8.320;2024-03-22T18:08:39;3.07;;;2.77;;
12846;SDS011;6492;48.128;8.320;2024-03-22T18:12:40;2.77;;;2.17;;
12846;SDS011;6492;48.128;8.320;2024-03-22T18:16:43;2.10;;;1.67;;
12846;SDS011;6492;48.128;8.320;2024-03-22T18:20:45;1.80;;;1.60;;
12846;SDS011;6492;48.128;8.320;2024-03-22T18:24:48;1.60;;;1.50;;
12846;SDS011;6492;48.128;8.320;2024-03-22T18:28:50;1.83;;;1.60;;
12846;SDS011;6492;48.128;8.320;2024-03-22T18:32:53;2.07;;;1.50;;
12846;SDS011;6492;48.128;8.320;2024-03-22T18:36:58;2.90;;;1.93;;
12846;SDS011;6492;48.128;8.320;2024-03-22T18:41:00;1.80;;;1.20;;
12846;SDS011;6492;48.128;8.320;2024-03-22T18:45:03;1.60;;;1.20;;
12846;SDS011;6492;48.128;8.320;2024-03-22T18:49:07;1.43;;;1.33;;
12846;SDS011;6492;48.128;8.320;2024-03-22T18:53:09;2.47;;;1.70;;
12846;SDS011;6492;48.128;8.320;2024-03-22T18:57:10;2.10;;;1.53;;
12846;SDS011;6492;48.128;8.320;2024-03-22T19:01:15;1.70;;;1.60;;
12846;SDS011;6492;48.128;8.320;2024-03-22T19:05:18;2.73;;;1.50;;
12846;SDS011;6492;48.128;8.320;2024-03-22T19:09:20;1.90;;;1.70;;
12846;SDS011;6492;48.128;8.320;2024-03-22T19:13:22;2.73;;;1.80;;
12846;SDS011;6492;48.128;8.320;2024-03-22T19:17:24;2.87;;;2.03;;
12846;SDS011;6492;48.128;8.320;2024-03-22T19:21:26;3.30;;;2.30;;
12846;SDS011;6492;48.128;8.320;2024-03-22T19:25:28;3.17;;;2.10;;
12846;SDS011;6492;48.128;8.320;2024-03-22T19:29:29;3.73;;;2.10;;
12846;SDS011;6492;48.128;8.320;2024-03-22T19:33:32;2.90;;;2.60;;
12846;SDS011;6492;48.128;8.320;2024-03-22T19:37:34;2.20;;;2.00;;
12846;SDS011;6492;48.128;8.320;2024-03-22T19:41:36;2.80;;;2.50;;
12846;SDS011;6492;48.128;8.320;2024-03-22T19:45:41;2.23;;;1.97;;
12846;SDS011;6492;48.128;8.320;2024-03-22T19:49:44;3.07;;;2.40;;
12846;SDS011;6492;48.128;8.320;2024-03-22T19:53:47;3.57;;;2.17;;
12846;SDS011;6492;48.128;8.320;2024-03-22T19:57:49;3.00;;;2.30;;
12846;SDS011;6492;48.128;8.320;2024-03-22T20:01:51;2.43;;;2.00;;
12846;SDS011;6492;48.128;8.320;2024-03-22T20:05:53;2.97;;;2.30;;
12846;SDS011;6492;48.128;8.320;2024-03-22T20:09:56;2.27;;;1.60;;
12846;SDS011;6492;48.128;8.320;2024-03-22T20:13:58;1.90;;;1.70;;
12846;SDS011;6492;48.128;8.320;2024-03-22T20:18:04;2.27;;;2.03;;
12846;SDS011;6492;48.128;8.320;2024-03-22T20:22:06;3.80;;;1.67;;
12846;SDS011;6492;48.128;8.320;2024-03-22T20:26:09;2.67;;;1.77;;
12846;SDS011;6492;48.128;8.320;2024-03-22T20:30:11;1.80;;;1.53;;
12846;SDS011;6492;48.128;8.320;2024-03-22T20:34:13;3.60;;;2.10;;
